createdAt,value
2022-11-12T00:03:43.901Z,99.90
2022-11-12T00:16:07.702Z,99.90
2022-11-12T00:21:04.123Z,99.90
2022-11-12T00:23:33.531Z,99.90
2022-11-12T00:31:09.995Z,99.90
2022-11-12T00:51:03.274Z,99.90
2022-11-12T01:01:09.087Z,99.90
2022-11-12T01:11:09.791Z,99.90
2022-11-12T01:21:11.162Z,99.90
2022-11-12T01:28:39.440Z,99.90
2022-11-12T01:36:12.142Z,99.90
2022-11-12T01:38:41.934Z,99.90
2022-11-12T01:41:14.021Z,99.90
2022-11-12T01:48:49.819Z,99.90
2022-11-12T01:53:50.831Z,99.90
2022-11-12T02:19:01.009Z,99.90
2022-11-12T02:26:31.777Z,99.90
2022-11-12T02:56:14.985Z,99.90
2022-11-12T03:01:11.623Z,99.90
2022-11-12T03:48:23.118Z,99.90
2022-11-12T03:55:48.406Z,99.90
2022-11-12T04:16:26.007Z,99.90
2022-11-12T04:19:13.193Z,99.90
2022-11-12T04:21:54.894Z,99.90
2022-11-12T05:12:27.685Z,99.90
2022-11-12T06:32:03.008Z,99.90
2022-11-12T07:41:25.962Z,99.90
2022-11-12T07:43:55.895Z,99.90
2022-11-12T08:28:47.126Z,99.90
2022-11-12T08:31:18.809Z,99.90
2022-11-12T09:06:04.793Z,99.90
2022-11-12T09:08:36.477Z,99.90
2022-11-12T09:11:05.346Z,99.90
2022-11-12T09:16:03.575Z,99.90
2022-11-12T09:18:32.466Z,99.90
2022-11-12T09:21:05.399Z,99.90
2022-11-12T09:23:35.663Z,99.90
2022-11-12T09:28:32.758Z,99.90
2022-11-12T09:33:31.701Z,99.90
2022-11-12T09:36:02.101Z,93.80
2022-11-12T09:38:30.416Z,89.70
2022-11-12T09:41:26.763Z,93.30
2022-11-12T09:43:58.556Z,94.10
2022-11-12T09:46:41.641Z,95.10
2022-11-12T09:49:16.800Z,97.00
2022-11-12T09:51:50.639Z,98.60
2022-11-12T09:54:25.210Z,99.90
2022-11-12T09:56:55.610Z,99.90
2022-11-12T09:59:25.923Z,99.90
2022-11-12T10:02:02.246Z,99.90
2022-11-12T10:04:49.636Z,99.90
2022-11-12T10:07:29.350Z,99.90
2022-11-12T10:10:05.013Z,99.90
2022-11-12T10:12:47.379Z,99.90
2022-11-12T10:15:50.560Z,99.90
2022-11-12T10:18:29.292Z,99.90
2022-11-12T10:21:04.271Z,99.90
2022-11-12T10:23:40.586Z,99.90
2022-11-12T10:26:14.237Z,99.90
2022-11-12T10:28:48.797Z,99.90
2022-11-12T10:31:19.271Z,99.90
2022-11-12T10:36:30.979Z,99.90
2022-11-12T10:41:30.982Z,99.90
2022-11-12T10:44:02.044Z,99.90
2022-11-12T10:46:31.789Z,99.90
2022-11-12T10:49:03.155Z,99.90
2022-11-12T10:51:34.026Z,99.90
2022-11-12T10:54:21.632Z,99.90
2022-11-12T10:56:54.979Z,99.90
2022-11-12T10:59:25.885Z,99.90
2022-11-12T11:01:59.465Z,99.90
2022-11-12T11:04:31.796Z,99.90
2022-11-12T11:07:03.853Z,99.90
2022-11-12T11:14:35.776Z,99.90
2022-11-12T11:17:09.318Z,99.90
2022-11-12T11:19:40.118Z,99.90
2022-11-12T11:22:31.280Z,99.90
2022-11-12T11:25:16.166Z,99.90
2022-11-12T11:27:58.763Z,99.90
2022-11-12T11:30:28.329Z,99.90
2022-11-12T11:33:22.432Z,99.90
2022-11-12T11:36:11.631Z,99.90
2022-11-12T11:38:53.049Z,99.90
2022-11-12T11:41:45.426Z,99.90
2022-11-12T11:44:23.218Z,99.90
2022-11-12T11:47:03.970Z,99.90
2022-11-12T11:49:51.204Z,99.90
2022-11-12T11:52:42.133Z,99.90
2022-11-12T11:55:29.139Z,99.90
2022-11-12T11:58:06.808Z,99.90
2022-11-12T12:00:48.408Z,99.90
2022-11-12T12:03:24.199Z,99.90
2022-11-12T12:06:09.110Z,99.90
2022-11-12T12:08:51.148Z,99.90
2022-11-12T12:11:28.747Z,99.90
2022-11-12T12:14:14.631Z,99.90
2022-11-12T12:16:55.378Z,99.90
2022-11-12T12:19:49.565Z,99.90
2022-11-12T12:22:20.842Z,99.90
2022-11-12T12:24:52.656Z,99.90
2022-11-12T12:27:25.794Z,99.90
2022-11-12T12:29:57.380Z,99.90
2022-11-12T12:32:30.575Z,99.90
2022-11-12T12:35:05.528Z,99.90
2022-11-12T12:37:40.465Z,99.90
2022-11-12T12:40:19.121Z,99.90
2022-11-12T12:42:52.137Z,99.90
2022-11-12T12:45:35.898Z,99.90
2022-11-12T12:48:08.295Z,99.90
2022-11-12T12:50:41.041Z,99.90
2022-11-12T12:53:19.732Z,98.70
2022-11-12T12:55:49.465Z,97.80
2022-11-12T12:58:27.165Z,96.90
2022-11-12T13:01:02.198Z,95.20
2022-11-12T13:03:53.824Z,95.90
2022-11-12T13:06:29.526Z,93.10
2022-11-12T13:09:01.666Z,93.80
2022-11-12T13:12:08.282Z,94.10
2022-11-12T13:14:52.312Z,91.40
2022-11-12T13:17:51.580Z,92.00
2022-11-12T13:20:35.282Z,91.90
2022-11-12T13:23:09.894Z,91.10
2022-11-12T13:25:39.237Z,90.80
2022-11-12T13:28:14.415Z,90.40
2022-11-12T13:31:00.602Z,90.40
2022-11-12T13:33:36.681Z,91.00
2022-11-12T13:36:27.369Z,91.30
2022-11-12T13:39:11.419Z,91.80
2022-11-12T13:46:56.141Z,90.10
2022-11-12T13:49:24.612Z,87.80
2022-11-12T13:51:53.251Z,90.40
2022-11-12T13:54:37.075Z,88.70
2022-11-12T13:57:28.185Z,91.10
2022-11-12T14:00:23.871Z,90.10
2022-11-12T14:02:55.417Z,90.70
2022-11-12T14:05:26.124Z,91.80
2022-11-12T14:08:12.851Z,91.60
2022-11-12T14:10:50.516Z,93.70
2022-11-12T14:13:33.146Z,92.90
2022-11-12T14:16:15.736Z,93.30
2022-11-12T14:19:03.384Z,94.50
2022-11-12T14:26:40.576Z,97.40
2022-11-12T14:29:17.073Z,96.80
2022-11-12T14:34:27.938Z,99.90
2022-11-12T14:36:57.476Z,98.70
2022-11-12T14:39:27.685Z,99.60
2022-11-12T14:41:59.657Z,99.90
2022-11-12T14:44:34.539Z,99.90
2022-11-12T14:47:03.421Z,99.90
2022-11-12T14:49:43.584Z,99.90
2022-11-12T14:52:16.138Z,99.90
2022-11-12T14:54:50.044Z,99.90
2022-11-12T14:57:24.301Z,99.90
2022-11-12T14:59:52.484Z,99.90
2022-11-12T15:02:36.016Z,99.90
2022-11-12T15:05:15.454Z,99.90
2022-11-12T15:07:56.937Z,99.90
2022-11-12T15:10:36.386Z,99.90
2022-11-12T15:13:09.923Z,99.90
2022-11-12T15:15:41.398Z,99.90
2022-11-12T15:18:16.905Z,99.90
2022-11-12T15:23:19.705Z,99.90
2022-11-12T15:28:24.093Z,99.90
2022-11-12T15:31:02.439Z,99.90
2022-11-12T15:33:30.972Z,99.90
2022-11-12T15:36:00.834Z,99.90
2022-11-12T15:38:35.741Z,99.90
2022-11-12T15:41:05.007Z,99.90
2022-11-12T15:43:42.404Z,99.90
2022-11-12T15:46:14.923Z,99.90
2022-11-12T15:51:12.068Z,99.90
2022-11-12T15:56:12.835Z,99.90
2022-11-12T15:58:42.422Z,99.90
2022-11-12T16:01:13.425Z,99.90
2022-11-12T16:06:11.982Z,99.90
2022-11-12T16:11:30.271Z,99.90
2022-11-12T16:13:59.746Z,99.90
2022-11-12T16:18:56.217Z,99.90
2022-11-12T16:26:27.535Z,99.90
2022-11-12T16:31:27.250Z,99.90
2022-11-12T16:38:51.978Z,99.90
2022-11-12T16:46:24.957Z,99.90
2022-11-12T16:48:54.967Z,99.90
2022-11-12T16:56:22.345Z,99.90
2022-11-12T17:01:25.903Z,99.90
2022-11-12T17:03:56.637Z,99.90
2022-11-12T17:08:55.205Z,99.90
2022-11-12T17:11:23.340Z,99.90
2022-11-12T17:21:19.686Z,99.90
2022-11-12T17:28:46.385Z,99.90
2022-11-12T17:31:15.973Z,99.90
2022-11-12T17:33:45.931Z,99.90
2022-11-12T17:38:44.656Z,99.90
2022-11-12T17:43:41.954Z,99.90
2022-11-12T17:51:11.208Z,99.90
2022-11-12T17:53:41.222Z,99.90
2022-11-12T18:06:12.257Z,99.90
2022-11-12T18:08:40.830Z,99.90
2022-11-12T18:11:11.528Z,99.90
2022-11-12T18:16:15.429Z,99.90
2022-11-12T18:23:41.105Z,99.90
2022-11-12T18:26:12.196Z,99.90
2022-11-12T18:31:09.291Z,99.90
2022-11-12T18:33:37.708Z,99.90
2022-11-12T18:36:08.733Z,99.90
2022-11-12T18:41:06.752Z,99.90
2022-11-12T18:43:37.188Z,99.90
2022-11-12T18:48:35.402Z,99.90
2022-11-12T18:51:07.677Z,99.90
2022-11-12T18:56:06.861Z,99.90
2022-11-12T18:58:36.331Z,99.90
2022-11-12T19:06:02.491Z,99.90
2022-11-12T19:10:59.660Z,99.90
2022-11-12T19:13:28.197Z,99.90
2022-11-12T19:16:04.583Z,99.90
2022-11-12T19:18:32.924Z,99.90
2022-11-12T19:21:05.770Z,99.90
2022-11-12T19:23:34.653Z,99.90
2022-11-12T19:26:03.366Z,99.90
2022-11-12T19:33:33.761Z,99.90
2022-11-12T19:38:34.822Z,99.90
2022-11-12T19:41:05.062Z,99.90
2022-11-12T19:46:03.397Z,99.90
2022-11-12T19:51:02.949Z,99.90
2022-11-12T19:53:34.571Z,99.90
2022-11-12T19:56:03.429Z,99.90
2022-11-12T20:01:06.350Z,99.90
2022-11-12T20:18:28.026Z,99.90
2022-11-12T20:20:57.985Z,99.90
2022-11-12T20:23:27.035Z,99.90
2022-11-12T20:30:52.346Z,99.90
2022-11-12T20:50:56.318Z,99.90
2022-11-12T20:53:31.700Z,99.90
2022-11-12T20:56:09.094Z,99.90
2022-11-12T21:01:08.164Z,99.90
2022-11-12T21:03:39.627Z,99.90
2022-11-12T21:06:09.593Z,99.90
2022-11-12T21:08:39.848Z,99.90
2022-11-12T21:11:09.891Z,99.90
2022-11-12T21:13:38.984Z,99.90
2022-11-12T21:16:07.792Z,99.90
2022-11-12T21:18:37.048Z,99.90
2022-11-12T21:21:07.420Z,99.90
2022-11-12T21:23:36.951Z,99.90
2022-11-12T21:26:08.470Z,99.90
2022-11-12T21:28:38.401Z,99.90
2022-11-12T21:31:08.482Z,99.90
2022-11-12T21:38:34.652Z,99.90
2022-11-12T21:41:04.440Z,99.90
2022-11-12T21:43:36.831Z,99.90
2022-11-12T21:46:08.223Z,99.90
2022-11-12T21:56:03.817Z,99.90
2022-11-12T22:01:09.598Z,99.90
2022-11-12T22:13:33.788Z,99.90
2022-11-12T22:18:36.172Z,99.90
2022-11-12T22:21:06.861Z,99.90
2022-11-12T22:23:36.046Z,99.90
2022-11-12T22:26:05.640Z,99.90
2022-11-12T22:28:34.878Z,99.90
2022-11-12T22:31:06.185Z,99.90
2022-11-12T22:33:36.297Z,99.90
2022-11-12T22:36:07.595Z,99.90
2022-11-12T22:41:06.666Z,99.90
2022-11-12T22:46:06.505Z,99.90
2022-11-12T22:51:06.853Z,99.90
2022-11-12T22:56:04.474Z,99.90
2022-11-12T23:03:32.036Z,99.90
2022-11-12T23:28:33.099Z,99.90
2022-11-12T23:48:29.120Z,99.90
2022-11-12T23:51:03.341Z,99.90
